עמוד ראשי
METAR-TAF:

METAR-TAF

שדות תעופה :

Samaná, הרפובליקה הדומיניקאנית

קו רוחב: 19-16-12N, קו אורך: 69-44-15W, גובה: 4מטר

תצפית מזג אוויר נוכחית

הדו"ח נערך לפני 1 שעות ו 8דקות, בשעה 00:00 UTC
רוח 3קשר עם כיוונים משתנים
טמפרטורת 29 צלסיוס
לחות 84%
לחץ 1015 hPa
ראות 10 קילומטר או יותר
עננים פזורים בגובה 2000רגל

METAR: MDCY 130000Z VRB03KT 9999 SCT020 29/26 Q1015

זמן: 21:08 (01:08 UTC)

תחזית

הדו"ח נערך לפני 3 שעות ו 8דקות, בשעה 22:00 UTC
תחזית בתוקף מ 13 ב 00 UTC עד 14 ב 00 UTC
רוח 10קשר מכיוון מזרח
ראות 10 קילומטר או יותר
מעט עננים בגובה 2000רגל
יעשה מ
13 ב 02 UTC עד 14 ב 04 UTC
רוח קשר מכיוון צפון
הסתברות 30%
13 ב 18 UTC עד 14 ב 00 UTC
ראות: 8000מטר
עננים פזורים בגובה 1600רגל
עננים בינוניים בגובה 7000רגל
ממטרי גשם קלים,

TAF: MDCY 122200Z 1300/1400 10010KT 9999 FEW020 BECMG 1302/1404 00000KT PROB30 1318/1400 8000 -SHRA SCT016 BKN070

תצפיות ותחזיות מזג אוויר לגבי יותר מ- 4,000 שדות תעופה ברחבי העולם. דוחות METAR ו- TAF.

התחנות הזמינות מסומנות בנקודות צהובות ואדומות על גבי המפה.

העבר את העכבר לנקודה הצבעונית על מנת לראות את שם התחנה.

לאחר מכן, לחץ כדי לראות את תוכן ואת תחזיות מזג האוויר.

כדי לשנות את המפה: לחץ על הכפתורים הירוקים עם הפלוס השחור כדי להתקרב; על הכפתור הירוק עם המקף כדי להתרחק; או בחיצים הירוקים למפות סמוכות.


METAR-TAF: